createdAt,value
2023-02-03T00:00:16.493Z,4.91
2023-02-03T00:01:17.272Z,4.92
2023-02-03T00:02:16.586Z,4.89
2023-02-03T00:03:16.544Z,4.88
2023-02-03T00:04:16.476Z,4.88
2023-02-03T00:05:17.004Z,4.86
2023-02-03T00:06:16.434Z,4.84
2023-02-03T00:07:16.434Z,4.80
2023-02-03T00:08:16.425Z,4.78
2023-02-03T00:09:16.419Z,4.84
2023-02-03T00:10:16.414Z,4.84
2023-02-03T00:11:16.397Z,4.85
2023-02-03T00:12:16.377Z,4.84
2023-02-03T00:13:16.370Z,4.85
2023-02-03T00:14:16.345Z,4.85
2023-02-03T00:15:16.346Z,4.80
2023-02-03T00:16:16.359Z,4.80
2023-02-03T00:17:17.137Z,4.75
2023-02-03T00:18:16.344Z,4.77
2023-02-03T00:19:17.739Z,4.75
2023-02-03T00:20:16.287Z,4.72
2023-02-03T00:21:16.297Z,4.69
2023-02-03T00:22:16.279Z,4.66
2023-02-03T00:23:16.269Z,4.66
2023-02-03T00:24:16.256Z,4.66
2023-02-03T00:25:16.248Z,4.66
2023-02-03T00:26:16.239Z,4.65
2023-02-03T00:27:16.219Z,4.66
2023-02-03T00:28:16.317Z,4.66
2023-02-03T00:29:16.318Z,4.65
2023-02-03T00:30:16.198Z,4.66
2023-02-03T00:31:16.324Z,4.66
2023-02-03T00:32:16.352Z,4.65
2023-02-03T00:33:16.162Z,4.63
2023-02-03T00:34:16.144Z,4.63
2023-02-03T00:35:16.153Z,4.62
2023-02-03T00:36:16.132Z,4.59
2023-02-03T00:37:16.133Z,4.54
2023-02-03T00:38:16.411Z,4.54
2023-02-03T00:39:16.126Z,4.54
2023-02-03T00:40:16.082Z,4.51
2023-02-03T00:41:16.103Z,4.51
2023-02-03T00:42:16.066Z,4.48
2023-02-03T00:43:16.063Z,4.47
2023-02-03T00:44:16.044Z,4.48
2023-02-03T00:45:16.041Z,4.47
2023-02-03T00:46:16.297Z,4.47
2023-02-03T00:47:16.548Z,4.47
2023-02-03T00:48:16.024Z,4.47
2023-02-03T00:49:16.004Z,4.45
2023-02-03T00:50:15.995Z,4.51
2023-02-03T00:51:15.990Z,4.55
2023-02-03T00:52:15.969Z,4.58
2023-02-03T00:53:15.954Z,4.60
2023-02-03T00:54:15.957Z,4.63
2023-02-03T00:55:16.335Z,4.65
2023-02-03T00:56:15.923Z,4.66
2023-02-03T00:57:15.918Z,4.86
2023-02-03T00:58:16.017Z,4.92
2023-02-03T00:59:15.894Z,5.03
2023-02-03T01:00:15.901Z,5.10
2023-02-03T01:01:15.946Z,5.18
2023-02-03T01:02:15.923Z,5.21
2023-02-03T01:03:15.846Z,5.22
2023-02-03T01:04:15.855Z,5.25
2023-02-03T01:05:15.852Z,5.27
2023-02-03T01:06:15.847Z,5.27
2023-02-03T01:07:15.808Z,5.31
2023-02-03T01:08:15.800Z,5.27
2023-02-03T01:09:15.805Z,5.31
2023-02-03T01:10:15.795Z,5.35
2023-02-03T01:11:15.758Z,5.36
2023-02-03T01:12:15.777Z,5.35
2023-02-03T01:13:15.749Z,5.36
2023-02-03T01:14:15.741Z,5.35
2023-02-03T01:15:15.729Z,5.35
2023-02-03T01:16:15.865Z,5.33
2023-02-03T01:17:15.698Z,5.30
2023-02-03T01:18:15.814Z,5.31
2023-02-03T01:19:16.021Z,5.30
2023-02-03T01:20:15.680Z,5.31
2023-02-03T01:21:15.661Z,5.36
2023-02-03T01:22:15.664Z,5.39
2023-02-03T01:23:15.773Z,5.35
2023-02-03T01:24:16.249Z,5.35
2023-02-03T01:25:15.636Z,5.38
2023-02-03T01:26:15.639Z,5.38
2023-02-03T01:27:15.602Z,5.39
2023-02-03T01:28:15.687Z,5.38
2023-02-03T01:29:15.583Z,5.36
2023-02-03T01:30:15.614Z,5.33
2023-02-03T01:31:15.688Z,5.31
2023-02-03T01:32:15.563Z,5.33
2023-02-03T01:33:16.354Z,5.38
2023-02-03T01:34:15.582Z,5.33
2023-02-03T01:35:15.604Z,5.33
2023-02-03T01:36:15.525Z,5.33
2023-02-03T01:37:15.505Z,5.33
2023-02-03T01:38:15.502Z,5.33
2023-02-03T01:39:15.485Z,5.35
2023-02-03T01:40:15.481Z,5.35
2023-02-03T01:41:15.454Z,5.35
2023-02-03T01:42:15.507Z,5.35
2023-02-03T01:43:15.442Z,5.30
2023-02-03T01:44:15.449Z,5.31
2023-02-03T01:45:15.416Z,5.33
2023-02-03T01:46:15.496Z,5.31
2023-02-03T01:47:16.202Z,5.30
2023-02-03T01:48:15.407Z,5.30
2023-02-03T01:49:15.380Z,5.27
2023-02-03T01:50:15.389Z,5.31
2023-02-03T01:51:15.357Z,5.30
2023-02-03T01:52:15.362Z,5.33
2023-02-03T01:53:15.338Z,5.31
2023-02-03T01:54:15.338Z,5.31
2023-02-03T01:55:15.339Z,5.30
2023-02-03T01:56:15.534Z,5.30
2023-02-03T01:57:15.299Z,5.30
2023-02-03T01:58:15.299Z,5.33
2023-02-03T01:59:15.269Z,5.31
2023-02-03T02:00:15.268Z,5.28
2023-02-03T02:01:15.364Z,5.30
2023-02-03T02:02:15.286Z,5.31
2023-02-03T02:03:15.247Z,5.31
2023-02-03T02:04:15.231Z,5.33
2023-02-03T02:05:15.224Z,5.38
2023-02-03T02:06:15.215Z,5.36
2023-02-03T02:07:15.199Z,5.36
2023-02-03T02:08:15.204Z,5.35
2023-02-03T02:09:15.170Z,5.36
2023-02-03T02:10:15.459Z,5.33
2023-02-03T02:11:15.163Z,5.30
2023-02-03T02:12:15.152Z,5.28
2023-02-03T02:13:15.129Z,5.24
2023-02-03T02:14:15.196Z,5.25
2023-02-03T02:15:15.218Z,5.25
2023-02-03T02:16:15.189Z,5.27
2023-02-03T02:17:15.092Z,5.25
2023-02-03T02:18:15.108Z,5.25
2023-02-03T02:19:15.183Z,5.25
2023-02-03T02:20:15.075Z,5.27
2023-02-03T02:21:15.053Z,5.27
2023-02-03T02:22:15.063Z,5.28
2023-02-03T02:23:15.033Z,5.28
2023-02-03T02:24:15.024Z,5.28
2023-02-03T02:25:15.038Z,5.33
2023-02-03T02:26:15.004Z,5.38
2023-02-03T02:27:14.998Z,5.35
2023-02-03T02:28:15.499Z,5.33
2023-02-03T02:29:14.966Z,5.33
2023-02-03T02:30:14.996Z,5.33
2023-02-03T02:31:15.027Z,5.31
2023-02-03T02:32:14.953Z,5.31
2023-02-03T02:33:14.929Z,5.31
2023-02-03T02:34:14.926Z,5.30
2023-02-03T02:35:14.935Z,5.28
2023-02-03T02:36:14.916Z,5.24
2023-02-03T02:37:14.886Z,5.27
2023-02-03T02:38:15.580Z,5.24
2023-02-03T02:39:14.867Z,5.27
2023-02-03T02:40:14.873Z,5.25
2023-02-03T02:41:14.849Z,5.25
2023-02-03T02:42:14.840Z,5.28
2023-02-03T02:43:14.856Z,5.25
2023-02-03T02:44:14.837Z,5.27
2023-02-03T02:45:14.811Z,5.24
2023-02-03T02:46:14.957Z,5.25
2023-02-03T02:47:14.792Z,5.22
2023-02-03T02:48:14.807Z,5.20
2023-02-03T02:49:14.768Z,5.21
2023-02-03T02:50:14.812Z,5.21
2023-02-03T02:51:14.766Z,5.24
2023-02-03T02:52:14.741Z,5.25
2023-02-03T02:53:14.731Z,5.24
2023-02-03T02:54:14.721Z,5.22
2023-02-03T02:55:15.094Z,5.21
2023-02-03T02:56:15.689Z,5.18
2023-02-03T02:57:14.702Z,5.17
2023-02-03T02:58:14.692Z,5.15
2023-02-03T02:59:14.661Z,5.15
2023-02-03T03:00:14.671Z,5.13
2023-02-03T03:01:14.673Z,5.13
2023-02-03T03:02:14.645Z,5.17
2023-02-03T03:03:14.652Z,5.17
2023-02-03T03:04:14.623Z,5.24
2023-02-03T03:05:14.647Z,5.24
2023-02-03T03:06:14.603Z,5.27
2023-02-03T03:07:14.593Z,5.25
2023-02-03T03:08:14.587Z,5.22
2023-02-03T03:09:14.576Z,5.20
2023-02-03T03:10:14.564Z,5.18
2023-02-03T03:11:14.533Z,5.17
2023-02-03T03:12:14.566Z,5.17
2023-02-03T03:13:14.534Z,5.17
2023-02-03T03:14:14.530Z,5.15
2023-02-03T03:15:14.511Z,5.12
2023-02-03T03:16:14.576Z,5.13
2023-02-03T03:17:14.634Z,5.07
2023-02-03T03:18:14.503Z,5.04
2023-02-03T03:19:14.476Z,5.00
2023-02-03T03:20:14.467Z,5.00
2023-02-03T03:21:14.445Z,5.00
2023-02-03T03:22:14.440Z,4.96
2023-02-03T03:23:14.426Z,4.94
2023-02-03T03:24:14.434Z,4.89
2023-02-03T03:25:14.398Z,4.85
2023-02-03T03:26:14.406Z,4.86
2023-02-03T03:27:14.377Z,4.78
2023-02-03T03:28:14.819Z,4.78
2023-02-03T03:29:14.366Z,4.72
2023-02-03T03:30:14.356Z,4.72
2023-02-03T03:31:14.551Z,4.69
2023-02-03T03:32:14.428Z,4.63
2023-02-03T03:33:14.318Z,4.65
2023-02-03T03:34:14.312Z,4.63
2023-02-03T03:35:14.331Z,4.65
2023-02-03T03:36:14.298Z,4.63
2023-02-03T03:37:14.297Z,4.63
2023-02-03T03:38:14.283Z,4.63
2023-02-03T03:39:14.260Z,4.62
2023-02-03T03:40:14.283Z,4.60
2023-02-03T03:41:14.242Z,4.62
2023-02-03T03:42:14.245Z,4.62
2023-02-03T03:43:14.317Z,4.60
2023-02-03T03:44:14.227Z,4.66
2023-02-03T03:45:14.193Z,4.63
2023-02-03T03:46:14.295Z,4.65
2023-02-03T03:47:14.184Z,4.63
2023-02-03T03:48:14.189Z,4.60
2023-02-03T03:49:14.155Z,4.60
2023-02-03T03:50:14.210Z,4.59
2023-02-03T03:51:14.130Z,4.60
2023-02-03T03:52:14.149Z,4.55
2023-02-03T03:53:14.111Z,4.58
2023-02-03T03:54:14.117Z,4.59
2023-02-03T03:55:14.103Z,4.60
2023-02-03T03:56:14.148Z,4.58
2023-02-03T03:57:14.084Z,4.59
2023-02-03T03:58:14.075Z,4.54
2023-02-03T03:59:14.094Z,4.51
2023-02-03T04:00:14.056Z,4.45
2023-02-03T04:01:14.494Z,4.44
2023-02-03T04:02:14.155Z,4.41
2023-02-03T04:03:14.072Z,4.41
2023-02-03T04:04:15.748Z,4.40
2023-02-03T04:05:14.000Z,4.42
2023-02-03T04:06:13.999Z,4.45
2023-02-03T04:07:14.005Z,4.48
2023-02-03T04:08:13.968Z,4.51
2023-02-03T04:09:13.960Z,4.55
2023-02-03T04:10:13.979Z,4.60
2023-02-03T04:11:13.926Z,4.63
2023-02-03T04:12:13.946Z,4.63
2023-02-03T04:13:13.904Z,4.69
2023-02-03T04:14:13.926Z,4.67
2023-02-03T04:15:13.890Z,4.69
2023-02-03T04:16:13.925Z,4.70
2023-02-03T04:17:14.117Z,4.69
2023-02-03T04:18:13.882Z,4.69
2023-02-03T04:19:13.851Z,4.67
2023-02-03T04:20:13.858Z,4.66
2023-02-03T04:21:13.828Z,4.63
2023-02-03T04:22:13.829Z,4.62
2023-02-03T04:23:13.837Z,4.60
2023-02-03T04:24:13.820Z,4.55
2023-02-03T04:25:13.792Z,4.51
2023-02-03T04:26:13.790Z,4.45
2023-02-03T04:27:13.781Z,4.41
2023-02-03T04:28:13.917Z,4.34
2023-02-03T04:29:13.748Z,4.29
2023-02-03T04:30:13.761Z,4.23
2023-02-03T04:31:13.855Z,4.16
2023-02-03T04:32:13.730Z,4.08
2023-02-03T04:33:13.701Z,4.04
2023-02-03T04:34:13.716Z,3.96
2023-02-03T04:35:13.960Z,3.90
2023-02-03T04:36:13.692Z,3.80
2023-02-03T04:37:13.669Z,3.75
2023-02-03T04:38:13.664Z,3.68
2023-02-03T04:39:13.665Z,3.60
2023-02-03T04:40:13.652Z,3.51
2023-02-03T04:41:13.647Z,3.45
2023-02-03T04:42:13.622Z,3.36
2023-02-03T04:43:13.601Z,3.32
2023-02-03T04:44:13.604Z,3.26
2023-02-03T04:45:13.601Z,3.20
2023-02-03T04:46:13.728Z,3.17
2023-02-03T04:47:13.554Z,3.10
2023-02-03T04:48:13.589Z,3.06
2023-02-03T04:49:13.543Z,3.02
2023-02-03T04:50:13.536Z,3.02
2023-02-03T04:51:13.524Z,2.99
2023-02-03T04:52:13.527Z,3.02
2023-02-03T04:53:15.891Z,3.02
2023-02-03T04:54:13.535Z,3.00
2023-02-03T04:55:13.481Z,2.97
2023-02-03T04:56:13.478Z,2.96
2023-02-03T04:57:13.472Z,2.95
2023-02-03T04:58:13.466Z,2.93
2023-02-03T04:59:13.446Z,2.92
2023-02-03T05:00:13.436Z,2.92
2023-02-03T05:01:13.485Z,2.92
2023-02-03T05:02:13.409Z,2.90
2023-02-03T05:03:14.390Z,2.82
2023-02-03T05:04:13.415Z,2.79
2023-02-03T05:05:13.378Z,2.75
2023-02-03T05:06:13.380Z,2.72
2023-02-03T05:07:13.355Z,2.69
2023-02-03T05:08:13.347Z,2.61
2023-02-03T05:09:13.348Z,2.59
2023-02-03T05:10:13.345Z,2.53
2023-02-03T05:11:13.323Z,2.54
2023-02-03T05:12:13.646Z,2.56
2023-02-03T05:13:14.099Z,2.56
2023-02-03T05:14:13.286Z,2.59
2023-02-03T05:15:13.306Z,2.63
2023-02-03T05:16:13.327Z,2.63
2023-02-03T05:17:13.273Z,2.61
2023-02-03T05:18:13.240Z,2.61
2023-02-03T05:19:13.248Z,2.63
2023-02-03T05:20:13.232Z,2.69
2023-02-03T05:21:13.229Z,2.78
2023-02-03T05:22:13.232Z,2.92
2023-02-03T05:23:13.202Z,3.05
2023-02-03T05:24:13.203Z,3.17
2023-02-03T05:25:13.207Z,3.40
2023-02-03T05:26:13.205Z,3.55
2023-02-03T05:27:13.173Z,3.58
2023-02-03T05:28:13.204Z,3.66
2023-02-03T05:29:13.138Z,3.68
2023-02-03T05:30:13.124Z,3.68
2023-02-03T05:31:13.357Z,3.66
2023-02-03T05:32:13.149Z,3.61
2023-02-03T05:33:13.096Z,3.60
2023-02-03T05:34:13.094Z,3.52
2023-02-03T05:35:13.118Z,3.51
2023-02-03T05:36:13.066Z,3.50
2023-02-03T05:37:13.048Z,3.48
2023-02-03T05:38:13.035Z,3.42
2023-02-03T05:39:13.044Z,3.35
2023-02-03T05:40:13.023Z,3.47
2023-02-03T05:41:13.006Z,3.68
2023-02-03T05:42:12.998Z,3.73
2023-02-03T05:43:13.003Z,3.73
2023-02-03T05:44:13.103Z,3.70
2023-02-03T05:45:13.002Z,3.65
2023-02-03T05:46:13.079Z,3.58
2023-02-03T05:47:12.996Z,3.52
2023-02-03T05:48:13.185Z,3.45
2023-02-03T05:49:12.980Z,3.33
2023-02-03T05:50:12.920Z,3.24
2023-02-03T05:51:12.908Z,3.17
2023-02-03T05:52:12.986Z,3.08
2023-02-03T05:53:12.886Z,2.97
2023-02-03T05:54:13.690Z,2.87
2023-02-03T05:55:12.871Z,2.79
2023-02-03T05:56:12.862Z,2.69
2023-02-03T05:57:12.840Z,2.57
2023-02-03T05:58:13.638Z,2.53
2023-02-03T05:59:12.842Z,2.45
2023-02-03T06:00:12.817Z,2.38
2023-02-03T06:01:12.820Z,2.31
2023-02-03T06:02:12.997Z,2.27
2023-02-03T06:03:12.836Z,2.24
2023-02-03T06:04:12.854Z,2.21
2023-02-03T06:05:13.557Z,2.20
2023-02-03T06:06:12.749Z,2.18
2023-02-03T06:07:13.027Z,2.17
2023-02-03T06:08:12.723Z,2.18
2023-02-03T06:09:12.731Z,2.24
2023-02-03T06:10:12.709Z,2.35
2023-02-03T06:11:13.498Z,2.43
2023-02-03T06:12:13.493Z,2.46
2023-02-03T06:13:12.683Z,2.52
2023-02-03T06:14:12.657Z,2.56
2023-02-03T06:15:12.658Z,2.57
2023-02-03T06:16:13.474Z,2.64
2023-02-03T06:17:12.741Z,2.64
2023-02-03T06:18:12.624Z,2.60
2023-02-03T06:19:14.549Z,2.54
2023-02-03T06:20:12.601Z,2.49
2023-02-03T06:21:12.613Z,2.48
2023-02-03T06:22:13.392Z,2.45
2023-02-03T06:23:12.592Z,2.36
2023-02-03T06:24:12.560Z,2.31
2023-02-03T06:25:13.272Z,2.25
2023-02-03T06:26:12.574Z,2.24
2023-02-03T06:27:12.553Z,2.17
2023-02-03T06:28:12.629Z,2.17
2023-02-03T06:29:12.544Z,2.14
2023-02-03T06:30:12.507Z,2.10
2023-02-03T06:31:12.630Z,2.10
2023-02-03T06:32:12.490Z,2.06
2023-02-03T06:33:12.473Z,2.02
2023-02-03T06:34:12.466Z,1.98
2023-02-03T06:35:12.507Z,1.98
2023-02-03T06:36:12.440Z,1.93
2023-02-03T06:37:12.453Z,1.88
2023-02-03T06:38:12.418Z,1.81
2023-02-03T06:39:12.418Z,1.79
2023-02-03T06:40:12.404Z,1.79
2023-02-03T06:41:12.385Z,1.79
2023-02-03T06:42:12.374Z,1.70
2023-02-03T06:43:12.369Z,1.65
2023-02-03T06:44:12.357Z,1.58
2023-02-03T06:45:12.356Z,1.51
2023-02-03T06:46:12.360Z,1.41
2023-02-03T06:47:12.325Z,1.33
2023-02-03T06:48:12.311Z,1.29
2023-02-03T06:49:12.429Z,1.27
2023-02-03T06:50:12.307Z,1.23
2023-02-03T06:51:12.306Z,1.22
2023-02-03T06:52:12.257Z,1.18
2023-02-03T06:53:12.290Z,1.20
2023-02-03T06:54:12.250Z,1.22
2023-02-03T06:55:12.252Z,1.20
2023-02-03T06:56:12.239Z,1.18
2023-02-03T06:57:12.241Z,1.20
2023-02-03T06:58:12.211Z,1.24
2023-02-03T06:59:12.210Z,1.58
2023-02-03T07:00:25.997Z,2.21
2023-02-03T07:01:13.254Z,2.90
2023-02-03T07:02:12.223Z,3.15
2023-02-03T07:03:12.192Z,3.24
2023-02-03T07:04:12.178Z,3.39
2023-02-03T07:05:12.158Z,3.40
2023-02-03T07:06:12.149Z,3.87
2023-02-03T07:07:12.371Z,4.14
2023-02-03T07:08:12.107Z,4.18
2023-02-03T07:09:12.116Z,4.14
2023-02-03T07:10:12.880Z,4.04
2023-02-03T07:11:12.115Z,3.91
2023-02-03T07:12:12.064Z,3.83
2023-02-03T07:13:12.062Z,3.66
2023-02-03T07:14:12.056Z,3.55
2023-02-03T07:15:12.040Z,3.48
2023-02-03T07:16:12.132Z,3.43
2023-02-03T07:17:12.030Z,3.36
2023-02-03T07:18:14.996Z,3.29
2023-02-03T07:19:13.001Z,3.23
2023-02-03T07:20:11.990Z,3.11
2023-02-03T07:21:11.981Z,2.97
2023-02-03T07:22:11.961Z,2.89
2023-02-03T07:23:11.963Z,2.79
2023-02-03T07:24:12.041Z,2.77
2023-02-03T07:25:11.944Z,2.67
2023-02-03T07:26:11.927Z,2.60
2023-02-03T07:27:11.932Z,2.59
2023-02-03T07:28:12.010Z,2.54
2023-02-03T07:29:11.910Z,2.52
2023-02-03T07:30:12.054Z,2.54
2023-02-03T07:31:11.954Z,2.60
2023-02-03T07:32:11.929Z,2.69
2023-02-03T07:33:11.854Z,2.75
2023-02-03T07:34:11.845Z,2.84
2023-02-03T07:35:11.824Z,2.99
2023-02-03T07:36:11.814Z,3.21
2023-02-03T07:37:11.810Z,3.39
2023-02-03T07:38:11.796Z,3.57
2023-02-03T07:39:11.799Z,3.70
2023-02-03T07:40:11.774Z,3.80
2023-02-03T07:41:11.765Z,3.93
2023-02-03T07:42:11.746Z,4.02
2023-02-03T07:43:11.751Z,4.08
2023-02-03T07:44:11.744Z,4.16
2023-02-03T07:45:11.763Z,4.29
2023-02-03T07:46:11.788Z,4.40
2023-02-03T07:47:12.706Z,4.47
2023-02-03T07:48:11.693Z,4.62
2023-02-03T07:49:11.687Z,4.73
2023-02-03T07:50:11.689Z,4.75
2023-02-03T07:51:11.669Z,4.85
2023-02-03T07:52:11.671Z,4.86
2023-02-03T07:53:11.637Z,4.96
2023-02-03T07:54:11.632Z,5.07
2023-02-03T07:55:11.627Z,5.10
2023-02-03T07:56:11.615Z,5.13
2023-02-03T07:57:11.611Z,5.13
2023-02-03T07:58:11.588Z,5.18
2023-02-03T07:59:11.581Z,5.22
2023-02-03T08:00:11.737Z,5.31
2023-02-03T08:01:11.563Z,5.43
2023-02-03T08:02:11.544Z,5.53
2023-02-03T08:03:11.556Z,5.61
2023-02-03T08:04:11.553Z,5.64
2023-02-03T08:05:11.581Z,5.63
2023-02-03T08:06:11.497Z,5.68
2023-02-03T08:07:12.292Z,5.72
2023-02-03T08:08:11.494Z,5.74
2023-02-03T08:09:11.481Z,5.75
2023-02-03T08:10:11.913Z,5.82
2023-02-03T08:11:11.490Z,5.79
2023-02-03T08:12:11.466Z,5.82
2023-02-03T08:13:11.442Z,5.82
2023-02-03T08:14:11.414Z,5.78
2023-02-03T08:15:11.426Z,5.81
2023-02-03T08:16:11.532Z,5.76
2023-02-03T08:17:11.393Z,5.74
2023-02-03T08:18:11.381Z,5.74
2023-02-03T08:19:11.379Z,5.76
2023-02-03T08:20:11.398Z,5.76
2023-02-03T08:21:11.361Z,5.79
2023-02-03T08:22:11.343Z,5.83
2023-02-03T08:23:11.374Z,5.83
2023-02-03T08:24:11.359Z,5.91
2023-02-03T08:25:11.305Z,5.93
2023-02-03T08:26:11.295Z,5.93
2023-02-03T08:27:11.403Z,6.01
2023-02-03T08:28:11.328Z,6.15
2023-02-03T08:29:11.285Z,6.30
2023-02-03T08:30:11.250Z,6.34
2023-02-03T08:31:11.519Z,6.40
2023-02-03T08:32:11.649Z,6.41
2023-02-03T08:33:11.243Z,6.38
2023-02-03T08:34:11.215Z,6.37
2023-02-03T08:35:11.217Z,6.33
2023-02-03T08:36:11.214Z,6.40
2023-02-03T08:37:11.256Z,6.44
2023-02-03T08:38:11.167Z,6.51
2023-02-03T08:39:11.177Z,6.58
2023-02-03T08:40:11.964Z,6.73
2023-02-03T08:41:11.162Z,6.71
2023-02-03T08:42:11.126Z,6.67
2023-02-03T08:43:11.137Z,6.76
2023-02-03T08:44:11.925Z,6.88
2023-02-03T08:45:11.098Z,7.03
2023-02-03T08:46:11.217Z,7.24
2023-02-03T08:47:11.212Z,7.34
2023-02-03T08:48:11.082Z,7.37
2023-02-03T08:49:11.079Z,7.46
2023-02-03T08:50:11.066Z,7.42
2023-02-03T08:51:11.040Z,7.48
2023-02-03T08:52:11.031Z,7.50
2023-02-03T08:53:11.031Z,7.48
2023-02-03T08:54:11.811Z,7.42
2023-02-03T08:55:11.010Z,7.52
2023-02-03T08:56:10.984Z,7.37
2023-02-03T08:57:10.979Z,7.34
2023-02-03T08:58:10.970Z,7.40
2023-02-03T08:59:10.960Z,7.45
2023-02-03T09:00:11.037Z,7.50
2023-02-03T09:01:11.082Z,7.34
2023-02-03T09:02:10.926Z,7.10
2023-02-03T09:03:10.915Z,6.84
2023-02-03T09:04:10.893Z,6.74
2023-02-03T09:05:10.969Z,6.71
2023-02-03T09:06:10.878Z,6.62
2023-02-03T09:07:11.534Z,6.66
2023-02-03T09:08:10.852Z,6.62
2023-02-03T09:09:10.854Z,6.67
2023-02-03T09:10:10.837Z,6.59
2023-02-03T09:11:10.831Z,6.66
2023-02-03T09:12:10.832Z,6.71
2023-02-03T09:13:10.825Z,6.77
2023-02-03T09:14:10.786Z,6.87
2023-02-03T09:15:10.819Z,6.99
2023-02-03T09:16:10.883Z,7.17
2023-02-03T09:17:10.779Z,7.25
2023-02-03T09:18:10.757Z,7.31
2023-02-03T09:19:10.767Z,7.31
2023-02-03T09:20:10.814Z,7.15
2023-02-03T09:21:13.882Z,7.21
2023-02-03T09:22:11.773Z,7.37
2023-02-03T09:23:10.719Z,7.61
2023-02-03T09:24:10.687Z,7.95
2023-02-03T09:25:10.681Z,8.22
2023-02-03T09:26:10.658Z,8.44
2023-02-03T09:27:10.674Z,8.66
2023-02-03T09:28:10.685Z,8.91
2023-02-03T09:29:10.630Z,8.98
2023-02-03T09:30:11.588Z,9.08
2023-02-03T09:31:10.817Z,9.24
2023-02-03T09:32:10.811Z,9.26
2023-02-03T09:33:10.590Z,9.38
2023-02-03T09:34:10.632Z,9.31
2023-02-03T09:35:10.572Z,9.47
2023-02-03T09:36:10.569Z,9.51
2023-02-03T09:37:10.568Z,9.48
2023-02-03T09:38:10.553Z,9.31
2023-02-03T09:39:10.535Z,9.32
2023-02-03T09:40:10.536Z,9.13
2023-02-03T09:41:11.902Z,9.33
2023-02-03T09:42:10.504Z,9.54
2023-02-03T09:43:10.512Z,9.61
2023-02-03T09:44:10.492Z,9.72
2023-02-03T09:45:10.479Z,9.78
2023-02-03T09:46:10.529Z,9.96
2023-02-03T09:47:10.469Z,10.02
2023-02-03T09:48:10.449Z,10.09
2023-02-03T09:49:11.117Z,10.12
2023-02-03T09:50:10.424Z,10.11
2023-02-03T09:51:10.431Z,10.07
2023-02-03T09:52:10.408Z,10.11
2023-02-03T09:53:10.386Z,10.15
2023-02-03T09:54:11.189Z,10.22
2023-02-03T09:55:10.399Z,10.20
2023-02-03T09:56:10.363Z,10.27
2023-02-03T09:57:10.440Z,10.29
2023-02-03T09:58:10.355Z,10.38
2023-02-03T09:59:10.318Z,10.32
2023-02-03T10:00:10.327Z,10.18
2023-02-03T10:01:10.361Z,10.15
2023-02-03T10:02:10.367Z,10.29
2023-02-03T10:03:10.410Z,10.18
2023-02-03T10:04:10.270Z,10.09
2023-02-03T10:05:10.262Z,10.11
2023-02-03T10:06:10.273Z,9.69
2023-02-03T10:07:10.240Z,9.51
2023-02-03T10:08:10.235Z,9.46
2023-02-03T10:09:10.229Z,9.17
2023-02-03T10:10:10.248Z,9.38
2023-02-03T10:11:10.192Z,9.61
2023-02-03T10:12:10.464Z,9.87
2023-02-03T10:13:10.190Z,10.01
2023-02-03T10:14:10.183Z,10.07
2023-02-03T10:15:10.145Z,10.25
2023-02-03T10:16:10.644Z,10.11
2023-02-03T10:17:11.037Z,9.99
2023-02-03T10:18:10.122Z,10.02
2023-02-03T10:19:10.151Z,10.02
2023-02-03T10:20:10.460Z,9.90
2023-02-03T10:21:10.898Z,9.96
2023-02-03T10:22:10.092Z,10.25
2023-02-03T10:23:10.064Z,10.45
2023-02-03T10:24:10.380Z,10.05
2023-02-03T10:25:10.063Z,9.94
2023-02-03T10:26:10.050Z,10.09
2023-02-03T10:27:10.228Z,10.32
2023-02-03T10:28:10.070Z,10.38
2023-02-03T10:29:10.014Z,10.48
2023-02-03T10:30:10.001Z,10.82
2023-02-03T10:31:10.162Z,11.06
2023-02-03T10:32:10.186Z,11.04
2023-02-03T10:33:09.957Z,11.25
2023-02-03T10:34:09.958Z,11.55
2023-02-03T10:35:09.947Z,11.70
2023-02-03T10:36:09.957Z,11.58
2023-02-03T10:37:09.945Z,11.78
2023-02-03T10:38:09.936Z,12.23
2023-02-03T10:39:09.893Z,12.27
2023-02-03T10:40:09.910Z,12.05
2023-02-03T10:41:10.012Z,11.85
2023-02-03T10:42:09.887Z,11.72
2023-02-03T10:43:09.943Z,11.94
2023-02-03T10:44:09.871Z,12.13
2023-02-03T10:45:09.841Z,12.14
2023-02-03T10:46:09.868Z,12.20
2023-02-03T10:47:09.812Z,12.42
2023-02-03T10:48:10.041Z,12.37
2023-02-03T10:49:10.741Z,12.05
2023-02-03T10:50:09.792Z,12.20
2023-02-03T10:51:09.791Z,12.13
2023-02-03T10:52:09.831Z,12.32
2023-02-03T10:53:09.805Z,12.17
2023-02-03T10:54:09.814Z,11.94
2023-02-03T10:55:10.482Z,12.01
2023-02-03T10:56:09.726Z,11.82
2023-02-03T10:57:09.706Z,11.47
2023-02-03T10:58:10.529Z,11.14
2023-02-03T10:59:09.678Z,11.07
2023-02-03T11:00:09.684Z,11.02
2023-02-03T11:01:09.732Z,11.02
2023-02-03T11:02:09.667Z,11.07
2023-02-03T11:03:09.636Z,11.07
2023-02-03T11:04:09.653Z,10.97
2023-02-03T11:05:09.619Z,10.73
2023-02-03T11:06:09.618Z,10.47
2023-02-03T11:07:09.629Z,10.53
2023-02-03T11:08:09.618Z,10.40
2023-02-03T11:09:09.587Z,10.55
2023-02-03T11:10:09.581Z,10.55
2023-02-03T11:11:09.568Z,10.41
2023-02-03T11:12:09.577Z,10.38
2023-02-03T11:13:09.540Z,10.48
2023-02-03T11:14:09.567Z,10.60
2023-02-03T11:15:09.540Z,10.63
2023-02-03T11:16:10.394Z,10.74
2023-02-03T11:17:09.520Z,10.64
2023-02-03T11:18:09.491Z,10.59
2023-02-03T11:19:09.471Z,10.60
2023-02-03T11:20:09.751Z,10.61
2023-02-03T11:21:09.452Z,10.52
2023-02-03T11:22:09.445Z,10.20
2023-02-03T11:23:09.443Z,10.17
2023-02-03T11:24:09.433Z,10.25
2023-02-03T11:25:09.471Z,10.70
2023-02-03T11:26:10.367Z,10.82
2023-02-03T11:27:09.422Z,10.94
2023-02-03T11:28:09.480Z,11.09
2023-02-03T11:29:09.376Z,11.54
2023-02-03T11:30:09.380Z,11.86
2023-02-03T11:31:09.444Z,11.67
2023-02-03T11:32:09.403Z,11.72
2023-02-03T11:33:09.328Z,11.64
2023-02-03T11:34:09.329Z,11.35
2023-02-03T11:35:09.298Z,11.61
2023-02-03T11:36:10.078Z,12.12
2023-02-03T11:37:09.289Z,12.59
2023-02-03T11:38:09.298Z,12.68
2023-02-03T11:39:09.271Z,12.59
2023-02-03T11:40:09.259Z,12.24
2023-02-03T11:41:09.243Z,12.28
2023-02-03T11:42:09.244Z,12.45
2023-02-03T11:43:09.219Z,12.17
2023-02-03T11:44:09.543Z,12.24
2023-02-03T11:45:09.202Z,12.17
2023-02-03T11:46:09.239Z,11.62
2023-02-03T11:47:09.181Z,11.82
2023-02-03T11:48:09.972Z,11.72
2023-02-03T11:49:09.161Z,12.07
2023-02-03T11:50:09.171Z,12.14
2023-02-03T11:51:09.154Z,12.13
2023-02-03T11:52:09.949Z,12.07
2023-02-03T11:53:09.133Z,12.41
2023-02-03T11:54:09.105Z,12.65
2023-02-03T11:55:09.094Z,12.87
2023-02-03T11:56:09.261Z,12.96
2023-02-03T11:57:09.167Z,12.78
2023-02-03T11:58:09.276Z,12.65
2023-02-03T11:59:09.048Z,12.46
2023-02-03T12:00:09.066Z,12.37
2023-02-03T12:01:09.053Z,11.98
2023-02-03T12:02:09.806Z,11.94
2023-02-03T12:03:09.073Z,11.72
2023-02-03T12:04:09.045Z,11.67
2023-02-03T12:05:08.982Z,11.60
2023-02-03T12:06:08.995Z,11.57
2023-02-03T12:07:08.960Z,11.60
2023-02-03T12:08:08.971Z,11.82
2023-02-03T12:09:08.962Z,12.04
2023-02-03T12:10:08.929Z,12.38
2023-02-03T12:11:09.099Z,12.49
2023-02-03T12:12:08.923Z,12.64
2023-02-03T12:13:09.001Z,13.19
2023-02-03T12:14:08.895Z,13.52
2023-02-03T12:15:09.346Z,13.23
2023-02-03T12:16:08.929Z,12.74
2023-02-03T12:17:08.872Z,12.01
2023-02-03T12:18:08.854Z,11.57
2023-02-03T12:19:08.895Z,11.22
2023-02-03T12:20:09.636Z,11.06
2023-02-03T12:21:08.824Z,11.04
2023-02-03T12:22:08.814Z,11.07
2023-02-03T12:23:08.815Z,11.10
2023-02-03T12:24:08.795Z,11.06
2023-02-03T12:25:09.584Z,11.02
2023-02-03T12:26:08.765Z,10.89
2023-02-03T12:27:08.772Z,10.79
2023-02-03T12:28:08.771Z,10.66
2023-02-03T12:29:09.524Z,10.67
2023-02-03T12:30:08.727Z,10.76
2023-02-03T12:31:08.837Z,10.70
2023-02-03T12:32:08.772Z,10.64
2023-02-03T12:33:08.689Z,10.41
2023-02-03T12:34:08.860Z,10.36
2023-02-03T12:35:08.676Z,10.36
2023-02-03T12:36:08.666Z,10.34
2023-02-03T12:37:08.656Z,10.32
2023-02-03T12:38:08.744Z,10.15
2023-02-03T12:39:08.621Z,10.15
2023-02-03T12:40:08.629Z,10.12
2023-02-03T12:41:08.634Z,10.22
2023-02-03T12:42:08.607Z,10.27
2023-02-03T12:43:08.862Z,10.41
2023-02-03T12:44:08.589Z,10.55
2023-02-03T12:45:08.561Z,10.27
2023-02-03T12:46:09.200Z,10.38
2023-02-03T12:47:08.548Z,10.51
2023-02-03T12:48:08.544Z,10.60
2023-02-03T12:49:09.339Z,10.51
2023-02-03T12:50:08.517Z,10.60
2023-02-03T12:51:08.502Z,10.66
2023-02-03T12:52:09.467Z,10.48
2023-02-03T12:53:08.488Z,10.41
2023-02-03T12:54:08.481Z,10.32
2023-02-03T12:55:08.466Z,10.20
2023-02-03T12:56:08.455Z,9.96
2023-02-03T12:57:08.436Z,9.94
2023-02-03T12:58:08.449Z,9.90
2023-02-03T12:59:08.428Z,9.75
2023-02-03T13:00:08.428Z,9.68
2023-02-03T13:01:09.233Z,9.60
2023-02-03T13:02:08.451Z,9.64
2023-02-03T13:03:08.376Z,9.64
2023-02-03T13:04:09.348Z,9.58
2023-02-03T13:05:08.490Z,9.60
2023-02-03T13:06:08.408Z,9.68
2023-02-03T13:07:08.399Z,9.75
2023-02-03T13:08:08.340Z,9.69
2023-02-03T13:09:08.364Z,9.61
2023-02-03T13:10:09.267Z,9.56
2023-02-03T13:11:08.302Z,9.56
2023-02-03T13:12:08.301Z,9.60